sensor_id;sensor_type;location;lat;lon;timestamp;pressure;altitude;pressure_sealevel;temperature;humidity
18985;BME280;9626;52.552;13.436;2023-03-21T00:01:56;101057.63;;;8.57;100.00
18985;BME280;9626;52.552;13.436;2023-03-21T00:04:23;101055.91;;;8.53;100.00
18985;BME280;9626;52.552;13.436;2023-03-21T00:06:50;101057.69;;;8.48;100.00
18985;BME280;9626;52.552;13.436;2023-03-21T00:09:16;101054.16;;;8.41;100.00
18985;BME280;9626;52.552;13.436;2023-03-21T00:11:42;101053.31;;;8.37;100.00
18985;BME280;9626;52.552;13.436;2023-03-21T00:14:11;101050.69;;;8.33;100.00
18985;BME280;9626;52.552;13.436;2023-03-21T00:16:43;101055.09;;;8.32;100.00
18985;BME280;9626;52.552;13.436;2023-03-21T00:19:10;101044.53;;;8.26;100.00
18985;BME280;9626;52.552;13.436;2023-03-21T00:21:36;101048.06;;;8.28;100.00
18985;BME280;9626;52.552;13.436;2023-03-21T00:24:04;101045.44;;;8.28;100.00
18985;BME280;9626;52.552;13.436;2023-03-21T00:26:31;101047.16;;;8.35;100.00
18985;BME280;9626;52.552;13.436;2023-03-21T00:28:58;101048.03;;;8.33;100.00
18985;BME280;9626;52.552;13.436;2023-03-21T00:31:24;101041.91;;;8.29;100.00
18985;BME280;9626;52.552;13.436;2023-03-21T00:33:50;101042.81;;;8.26;100.00
18985;BME280;9626;52.552;13.436;2023-03-21T00:36:17;101036.63;;;8.26;100.00
18985;BME280;9626;52.552;13.436;2023-03-21T00:38:43;101035.78;;;8.25;100.00
18985;BME280;9626;52.552;13.436;2023-03-21T00:41:11;101034.00;;;8.23;100.00
18985;BME280;9626;52.552;13.436;2023-03-21T00:43:37;101037.53;;;8.23;100.00
18985;BME280;9626;52.552;13.436;2023-03-21T00:46:03;101041.06;;;8.24;100.00
18985;BME280;9626;52.552;13.436;2023-03-21T00:48:30;101036.66;;;8.23;100.00
18985;BME280;9626;52.552;13.436;2023-03-21T00:50:58;101034.06;;;8.18;100.00
18985;BME280;9626;52.552;13.436;2023-03-21T00:53:26;101029.63;;;8.19;100.00
18985;BME280;9626;52.552;13.436;2023-03-21T00:55:52;101027.03;;;8.16;100.00
18985;BME280;9626;52.552;13.436;2023-03-21T00:58:18;101024.38;;;8.16;100.00
18985;BME280;9626;52.552;13.436;2023-03-21T01:00:44;101027.91;;;8.15;100.00
18985;BME280;9626;52.552;13.436;2023-03-21T01:03:15;101022.63;;;8.15;100.00
18985;BME280;9626;52.552;13.436;2023-03-21T01:05:44;101026.09;;;8.23;100.00
18985;BME280;9626;52.552;13.436;2023-03-21T01:08:38;101027.00;;;8.20;100.00
18985;BME280;9626;52.552;13.436;2023-03-21T01:11:07;101021.72;;;8.17;100.00
18985;BME280;9626;52.552;13.436;2023-03-21T01:13:34;101020.00;;;8.11;100.00
18985;BME280;9626;52.552;13.436;2023-03-21T01:16:01;101022.63;;;8.08;100.00
18985;BME280;9626;52.552;13.436;2023-03-21T01:18:31;101019.13;;;8.09;100.00
18985;BME280;9626;52.552;13.436;2023-03-21T01:20:59;101014.72;;;8.11;100.00
18985;BME280;9626;52.552;13.436;2023-03-21T01:23:27;101017.34;;;8.08;100.00
18985;BME280;9626;52.552;13.436;2023-03-21T01:25:55;101021.78;;;8.06;100.00
18985;BME280;9626;52.552;13.436;2023-03-21T01:28:42;101018.28;;;8.07;100.00
18985;BME280;9626;52.552;13.436;2023-03-21T01:31:10;101014.72;;;8.07;100.00
18985;BME280;9626;52.552;13.436;2023-03-21T01:33:37;101016.50;;;8.06;100.00
18985;BME280;9626;52.552;13.436;2023-03-21T01:36:04;101014.72;;;8.07;100.00
18985;BME280;9626;52.552;13.436;2023-03-21T01:38:30;101019.13;;;8.11;100.00
18985;BME280;9626;52.552;13.436;2023-03-21T01:40:59;101007.72;;;8.06;100.00
18985;BME280;9626;52.552;13.436;2023-03-21T01:43:34;101019.16;;;8.05;100.00
18985;BME280;9626;52.552;13.436;2023-03-21T01:48:39;101020.00;;;8.08;100.00
18985;BME280;9626;52.552;13.436;2023-03-21T01:51:10;101013.88;;;8.06;100.00
18985;BME280;9626;52.552;13.436;2023-03-21T01:53:38;101016.50;;;8.06;100.00
18985;BME280;9626;52.552;13.436;2023-03-21T01:56:15;101012.09;;;8.11;100.00
18985;BME280;9626;52.552;13.436;2023-03-21T01:58:43;101007.72;;;8.09;100.00
18985;BME280;9626;52.552;13.436;2023-03-21T02:01:13;101010.34;;;8.09;100.00
18985;BME280;9626;52.552;13.436;2023-03-21T02:03:44;101008.63;;;8.03;100.00
18985;BME280;9626;52.552;13.436;2023-03-21T02:09:10;101001.56;;;8.02;100.00
18985;BME280;9626;52.552;13.436;2023-03-21T02:11:38;101009.50;;;8.01;100.00
18985;BME280;9626;52.552;13.436;2023-03-21T02:14:22;101014.78;;;7.99;100.00
18985;BME280;9626;52.552;13.436;2023-03-21T02:26:10;101011.25;;;7.97;100.00
18985;BME280;9626;52.552;13.436;2023-03-21T02:29:01;101004.25;;;7.98;100.00
18985;BME280;9626;52.552;13.436;2023-03-21T02:39:28;101002.53;;;7.79;100.00
18985;BME280;9626;52.552;13.436;2023-03-21T02:42:06;101006.06;;;7.78;100.00
18985;BME280;9626;52.552;13.436;2023-03-21T02:47:08;100999.03;;;7.77;100.00
18985;BME280;9626;52.552;13.436;2023-03-21T02:52:24;101005.16;;;7.78;100.00
18985;BME280;9626;52.552;13.436;2023-03-21T02:54:52;101001.69;;;7.70;100.00
18985;BME280;9626;52.552;13.436;2023-03-21T02:57:20;101002.59;;;7.64;100.00
18985;BME280;9626;52.552;13.436;2023-03-21T02:59:48;101005.19;;;7.67;100.00
18985;BME280;9626;52.552;13.436;2023-03-21T03:02:16;101003.44;;;7.66;100.00
18985;BME280;9626;52.552;13.436;2023-03-21T03:04:45;101000.81;;;7.61;100.00
18985;BME280;9626;52.552;13.436;2023-03-21T03:18:18;101006.97;;;7.62;100.00
18985;BME280;9626;52.552;13.436;2023-03-21T03:23:42;101009.66;;;7.53;100.00
18985;BME280;9626;52.552;13.436;2023-03-21T03:26:34;101007.88;;;7.55;100.00
18985;BME280;9626;52.552;13.436;2023-03-21T03:29:08;101003.50;;;7.48;100.00
18985;BME280;9626;52.552;13.436;2023-03-21T03:31:40;101013.16;;;7.44;100.00
18985;BME280;9626;52.552;13.436;2023-03-21T03:34:12;101004.38;;;7.42;100.00
18985;BME280;9626;52.552;13.436;2023-03-21T03:36:43;101009.66;;;7.42;100.00
18985;BME280;9626;52.552;13.436;2023-03-21T03:39:13;101006.16;;;7.44;100.00
18985;BME280;9626;52.552;13.436;2023-03-21T03:42:00;101011.41;;;7.44;100.00
18985;BME280;9626;52.552;13.436;2023-03-21T03:44:28;101014.03;;;7.38;100.00
18985;BME280;9626;52.552;13.436;2023-03-21T03:47:05;101013.16;;;7.33;100.00
18985;BME280;9626;52.552;13.436;2023-03-21T03:49:41;101016.69;;;7.32;100.00
18985;BME280;9626;52.552;13.436;2023-03-21T03:52:21;101010.53;;;7.30;100.00
18985;BME280;9626;52.552;13.436;2023-03-21T03:54:51;101013.16;;;7.32;100.00
18985;BME280;9626;52.552;13.436;2023-03-21T03:57:18;101012.31;;;7.31;100.00
18985;BME280;9626;52.552;13.436;2023-03-21T03:59:45;101016.69;;;7.40;100.00
18985;BME280;9626;52.552;13.436;2023-03-21T04:02:12;101020.19;;;7.39;100.00
18985;BME280;9626;52.552;13.436;2023-03-21T04:04:39;101015.81;;;7.38;100.00
18985;BME280;9626;52.552;13.436;2023-03-21T04:07:06;101010.53;;;7.33;100.00
18985;BME280;9626;52.552;13.436;2023-03-21T04:09:34;101017.56;;;7.22;100.00
18985;BME280;9626;52.552;13.436;2023-03-21T04:12:00;101014.06;;;7.17;100.00
18985;BME280;9626;52.552;13.436;2023-03-21T04:14:26;101012.28;;;7.16;100.00
18985;BME280;9626;52.552;13.436;2023-03-21T04:16:52;101009.69;;;7.17;100.00
18985;BME280;9626;52.552;13.436;2023-03-21T04:19:19;101010.53;;;7.21;100.00
18985;BME280;9626;52.552;13.436;2023-03-21T04:21:45;101007.03;;;7.22;100.00
18985;BME280;9626;52.552;13.436;2023-03-21T04:24:12;101012.31;;;7.19;100.00
18985;BME280;9626;52.552;13.436;2023-03-21T04:26:39;101003.53;;;7.17;100.00
18985;BME280;9626;52.552;13.436;2023-03-21T04:29:06;101007.03;;;7.16;100.00
18985;BME280;9626;52.552;13.436;2023-03-21T04:31:33;101014.06;;;7.20;100.00
18985;BME280;9626;52.552;13.436;2023-03-21T04:34:02;101007.94;;;7.15;100.00
18985;BME280;9626;52.552;13.436;2023-03-21T04:36:29;101009.69;;;7.17;100.00
18985;BME280;9626;52.552;13.436;2023-03-21T04:39:05;101012.28;;;7.16;100.00
18985;BME280;9626;52.552;13.436;2023-03-21T04:41:38;101015.84;;;7.13;100.00
18985;BME280;9626;52.552;13.436;2023-03-21T04:44:04;101014.06;;;7.17;100.00
18985;BME280;9626;52.552;13.436;2023-03-21T04:46:31;101010.56;;;7.18;100.00
18985;BME280;9626;52.552;13.436;2023-03-21T04:48:57;101013.22;;;7.13;100.00
18985;BME280;9626;52.552;13.436;2023-03-21T04:51:24;101019.34;;;7.10;100.00
18985;BME280;9626;52.552;13.436;2023-03-21T04:53:50;101014.06;;;7.14;100.00
18985;BME280;9626;52.552;13.436;2023-03-21T04:56:17;101011.44;;;7.15;100.00
18985;BME280;9626;52.552;13.436;2023-03-21T04:58:44;101015.81;;;7.11;100.00
18985;BME280;9626;52.552;13.436;2023-03-21T05:01:10;101015.81;;;7.05;100.00
18985;BME280;9626;52.552;13.436;2023-03-21T05:03:39;101019.34;;;7.01;100.00
18985;BME280;9626;52.552;13.436;2023-03-21T05:06:06;101016.69;;;6.97;100.00
18985;BME280;9626;52.552;13.436;2023-03-21T05:08:34;101019.31;;;6.92;100.00
18985;BME280;9626;52.552;13.436;2023-03-21T05:11:01;101019.34;;;6.89;100.00
18985;BME280;9626;52.552;13.436;2023-03-21T05:13:27;101020.19;;;6.88;100.00
18985;BME280;9626;52.552;13.436;2023-03-21T05:15:53;101016.69;;;6.87;100.00
18985;BME280;9626;52.552;13.436;2023-03-21T05:18:20;101015.81;;;6.84;100.00
18985;BME280;9626;52.552;13.436;2023-03-21T05:20:50;101016.69;;;6.84;100.00
18985;BME280;9626;52.552;13.436;2023-03-21T05:23:21;101012.28;;;6.80;100.00
18985;BME280;9626;52.552;13.436;2023-03-21T05:25:48;101007.91;;;6.84;100.00
18985;BME280;9626;52.552;13.436;2023-03-21T05:28:14;101014.06;;;6.89;100.00
18985;BME280;9626;52.552;13.436;2023-03-21T05:30:45;101016.72;;;6.98;100.00
18985;BME280;9626;52.552;13.436;2023-03-21T05:33:11;101015.81;;;6.99;100.00
18985;BME280;9626;52.552;13.436;2023-03-21T05:35:38;101012.31;;;7.00;100.00
18985;BME280;9626;52.552;13.436;2023-03-21T05:38:05;101014.94;;;6.97;100.00
18985;BME280;9626;52.552;13.436;2023-03-21T05:40:31;101010.53;;;6.99;100.00
18985;BME280;9626;52.552;13.436;2023-03-21T05:42:58;101013.19;;;7.01;100.00
18985;BME280;9626;52.552;13.436;2023-03-21T05:45:24;101014.06;;;6.97;100.00
18985;BME280;9626;52.552;13.436;2023-03-21T05:47:50;101011.44;;;6.90;100.00
18985;BME280;9626;52.552;13.436;2023-03-21T05:50:16;101014.06;;;6.93;100.00
18985;BME280;9626;52.552;13.436;2023-03-21T05:52:42;101021.06;;;7.01;100.00
18985;BME280;9626;52.552;13.436;2023-03-21T05:55:08;101015.81;;;6.99;100.00
18985;BME280;9626;52.552;13.436;2023-03-21T05:57:35;101015.84;;;7.02;100.00
18985;BME280;9626;52.552;13.436;2023-03-21T06:00:05;101007.91;;;6.99;100.00
18985;BME280;9626;52.552;13.436;2023-03-21T06:02:32;101021.97;;;7.03;100.00
18985;BME280;9626;52.552;13.436;2023-03-21T06:04:58;101019.31;;;7.07;100.00
18985;BME280;9626;52.552;13.436;2023-03-21T06:07:24;101021.09;;;7.05;100.00
18985;BME280;9626;52.552;13.436;2023-03-21T06:09:50;101023.72;;;7.07;100.00
18985;BME280;9626;52.552;13.436;2023-03-21T06:12:16;101025.47;;;7.09;100.00
18985;BME280;9626;52.552;13.436;2023-03-21T06:14:42;101026.34;;;7.11;100.00
18985;BME280;9626;52.552;13.436;2023-03-21T06:17:08;101021.97;;;7.14;100.00
18985;BME280;9626;52.552;13.436;2023-03-21T06:19:34;101024.59;;;7.17;100.00
18985;BME280;9626;52.552;13.436;2023-03-21T06:22:00;101025.50;;;7.19;100.00
18985;BME280;9626;52.552;13.436;2023-03-21T06:24:26;101025.50;;;7.19;100.00
18985;BME280;9626;52.552;13.436;2023-03-21T06:26:52;101025.50;;;7.19;100.00
18985;BME280;9626;52.552;13.436;2023-03-21T06:29:18;101026.34;;;7.19;100.00
18985;BME280;9626;52.552;13.436;2023-03-21T06:31:45;101028.09;;;7.16;100.00
18985;BME280;9626;52.552;13.436;2023-03-21T06:34:11;101023.72;;;7.15;100.00
18985;BME280;9626;52.552;13.436;2023-03-21T06:36:37;101024.63;;;7.10;100.00
18985;BME280;9626;52.552;13.436;2023-03-21T06:39:04;101028.97;;;7.11;100.00
18985;BME280;9626;52.552;13.436;2023-03-21T06:41:32;101030.75;;;7.17;100.00
18985;BME280;9626;52.552;13.436;2023-03-21T06:43:58;101032.50;;;7.14;100.00
18985;BME280;9626;52.552;13.436;2023-03-21T06:46:24;101027.25;;;7.09;100.00
18985;BME280;9626;52.552;13.436;2023-03-21T06:48:50;101029.84;;;7.07;100.00
18985;BME280;9626;52.552;13.436;2023-03-21T06:51:16;101032.53;;;7.09;100.00
18985;BME280;9626;52.552;13.436;2023-03-21T06:53:42;101029.00;;;7.16;100.00
18985;BME280;9626;52.552;13.436;2023-03-21T06:56:10;101031.63;;;7.21;100.00
18985;BME280;9626;52.552;13.436;2023-03-21T06:58:36;101037.78;;;7.23;100.00
18985;BME280;9626;52.552;13.436;2023-03-21T07:01:03;101038.63;;;7.25;100.00
18985;BME280;9626;52.552;13.436;2023-03-21T07:03:30;101036.91;;;7.27;100.00
18985;BME280;9626;52.552;13.436;2023-03-21T07:05:56;101034.25;;;7.28;100.00
18985;BME280;9626;52.552;13.436;2023-03-21T07:08:23;101039.50;;;7.32;100.00
18985;BME280;9626;52.552;13.436;2023-03-21T07:10:49;101037.78;;;7.32;100.00
18985;BME280;9626;52.552;13.436;2023-03-21T07:13:15;101035.13;;;7.29;100.00
18985;BME280;9626;52.552;13.436;2023-03-21T07:15:41;101041.28;;;7.33;100.00
18985;BME280;9626;52.552;13.436;2023-03-21T07:18:08;101043.94;;;7.28;100.00
18985;BME280;9626;52.552;13.436;2023-03-21T07:20:35;101041.28;;;7.30;100.00
18985;BME280;9626;52.552;13.436;2023-03-21T07:23:04;101040.41;;;7.26;100.00
18985;BME280;9626;52.552;13.436;2023-03-21T07:25:30;101049.19;;;7.31;100.00
18985;BME280;9626;52.552;13.436;2023-03-21T07:27:58;101050.06;;;7.22;100.00
18985;BME280;9626;52.552;13.436;2023-03-21T07:30:26;101048.28;;;7.20;100.00
18985;BME280;9626;52.552;13.436;2023-03-21T07:32:52;101049.19;;;7.13;100.00
18985;BME280;9626;52.552;13.436;2023-03-21T07:35:19;101045.69;;;7.10;100.00
18985;BME280;9626;52.552;13.436;2023-03-21T07:37:45;101053.56;;;7.12;100.00
18985;BME280;9626;52.552;13.436;2023-03-21T07:40:12;101050.06;;;7.15;100.00
18985;BME280;9626;52.552;13.436;2023-03-21T07:42:39;101053.56;;;7.14;100.00
18985;BME280;9626;52.552;13.436;2023-03-21T07:45:06;101054.44;;;7.16;100.00
18985;BME280;9626;52.552;13.436;2023-03-21T07:47:33;101052.72;;;7.15;100.00
18985;BME280;9626;52.552;13.436;2023-03-21T07:49:59;101053.56;;;7.17;100.00
18985;BME280;9626;52.552;13.436;2023-03-21T07:52:25;101053.56;;;7.18;100.00
18985;BME280;9626;52.552;13.436;2023-03-21T07:54:52;101056.22;;;7.15;100.00
18985;BME280;9626;52.552;13.436;2023-03-21T07:57:19;101057.06;;;7.16;100.00
18985;BME280;9626;52.552;13.436;2023-03-21T07:59:45;101056.22;;;7.10;100.00
18985;BME280;9626;52.552;13.436;2023-03-21T08:02:16;101050.06;;;7.05;100.00
18985;BME280;9626;52.552;13.436;2023-03-21T08:04:43;101049.19;;;7.06;100.00
18985;BME280;9626;52.552;13.436;2023-03-21T08:07:10;101046.53;;;7.11;100.00
18985;BME280;9626;52.552;13.436;2023-03-21T08:09:36;101043.03;;;7.20;100.00
18985;BME280;9626;52.552;13.436;2023-03-21T08:12:03;101052.69;;;7.21;100.00
18985;BME280;9626;52.552;13.436;2023-03-21T08:14:33;101050.06;;;7.19;100.00
18985;BME280;9626;52.552;13.436;2023-03-21T08:17:00;101043.94;;;7.19;100.00
18985;BME280;9626;52.552;13.436;2023-03-21T08:19:26;101047.44;;;7.18;100.00
18985;BME280;9626;52.552;13.436;2023-03-21T08:21:52;101048.31;;;7.26;100.00
18985;BME280;9626;52.552;13.436;2023-03-21T08:24:19;101048.31;;;7.24;100.00
18985;BME280;9626;52.552;13.436;2023-03-21T08:26:45;101052.69;;;7.21;100.00
18985;BME280;9626;52.552;13.436;2023-03-21T08:29:12;101058.81;;;7.31;100.00
18985;BME280;9626;52.552;13.436;2023-03-21T08:31:39;101055.31;;;7.22;100.00
18985;BME280;9626;52.552;13.436;2023-03-21T08:34:06;101044.81;;;7.25;100.00
18985;BME280;9626;52.552;13.436;2023-03-21T08:36:34;101053.56;;;7.31;100.00
18985;BME280;9626;52.552;13.436;2023-03-21T08:39:05;101053.53;;;7.43;100.00
18985;BME280;9626;52.552;13.436;2023-03-21T08:41:32;101054.44;;;7.43;100.00
18985;BME280;9626;52.552;13.436;2023-03-21T08:43:58;101056.22;;;7.35;100.00
18985;BME280;9626;52.552;13.436;2023-03-21T08:46:24;101052.69;;;7.39;100.00
18985;BME280;9626;52.552;13.436;2023-03-21T08:48:52;101054.44;;;7.47;100.00
18985;BME280;9626;52.552;13.436;2023-03-21T08:51:18;101057.06;;;7.50;100.00
18985;BME280;9626;52.552;13.436;2023-03-21T08:53:44;101059.69;;;7.50;100.00
18985;BME280;9626;52.552;13.436;2023-03-21T08:56:10;101048.28;;;7.49;100.00
18985;BME280;9626;52.552;13.436;2023-03-21T08:58:37;101051.78;;;7.56;100.00
18985;BME280;9626;52.552;13.436;2023-03-21T09:01:04;101059.69;;;7.57;100.00
18985;BME280;9626;52.552;13.436;2023-03-21T09:03:32;101056.19;;;7.60;100.00
18985;BME280;9626;52.552;13.436;2023-03-21T09:05:58;101059.69;;;7.57;100.00
18985;BME280;9626;52.552;13.436;2023-03-21T09:08:24;101055.31;;;7.63;100.00
18985;BME280;9626;52.552;13.436;2023-03-21T09:10:54;101064.06;;;7.66;100.00
18985;BME280;9626;52.552;13.436;2023-03-21T09:13:21;101063.19;;;7.64;100.00
18985;BME280;9626;52.552;13.436;2023-03-21T09:15:48;101059.69;;;7.62;100.00
18985;BME280;9626;52.552;13.436;2023-03-21T09:18:14;101059.69;;;7.64;100.00
18985;BME280;9626;52.552;13.436;2023-03-21T09:20:47;101061.44;;;7.69;100.00
18985;BME280;9626;52.552;13.436;2023-03-21T09:23:15;101060.53;;;7.76;100.00
18985;BME280;9626;52.552;13.436;2023-03-21T09:25:44;101055.25;;;7.81;100.00
18985;BME280;9626;52.552;13.436;2023-03-21T09:28:10;101057.03;;;7.76;100.00
18985;BME280;9626;52.552;13.436;2023-03-21T09:30:37;101061.41;;;7.85;100.00
18985;BME280;9626;52.552;13.436;2023-03-21T09:33:05;101057.84;;;7.92;100.00
18985;BME280;9626;52.552;13.436;2023-03-21T09:35:34;101055.22;;;7.98;100.00
18985;BME280;9626;52.552;13.436;2023-03-21T09:38:01;101064.88;;;7.99;100.00
18985;BME280;9626;52.552;13.436;2023-03-21T09:46:15;101054.31;;;8.02;100.00
18985;BME280;9626;52.552;13.436;2023-03-21T09:48:55;101056.94;;;8.04;100.00
18985;BME280;9626;52.552;13.436;2023-03-21T09:51:25;101058.72;;;8.05;100.00
18985;BME280;9626;52.552;13.436;2023-03-21T09:53:54;101050.78;;;8.00;100.00
18985;BME280;9626;52.552;13.436;2023-03-21T09:56:22;101042.91;;;7.95;100.00
18985;BME280;9626;52.552;13.436;2023-03-21T09:58:54;101053.44;;;8.00;100.00
18985;BME280;9626;52.552;13.436;2023-03-21T10:01:25;101048.19;;;8.02;100.00
18985;BME280;9626;52.552;13.436;2023-03-21T10:03:57;101046.41;;;8.05;100.00
18985;BME280;9626;52.552;13.436;2023-03-21T10:06:26;101043.69;;;8.18;100.00
18985;BME280;9626;52.552;13.436;2023-03-21T10:09:14;101042.81;;;8.20;100.00
18985;BME280;9626;52.552;13.436;2023-03-21T10:11:48;101040.13;;;8.31;100.00
18985;BME280;9626;52.552;13.436;2023-03-21T10:14:39;101041.88;;;8.37;100.00
18985;BME280;9626;52.552;13.436;2023-03-21T10:17:21;101042.72;;;8.40;100.00
18985;BME280;9626;52.552;13.436;2023-03-21T10:19:57;101026.03;;;8.41;100.00
18985;BME280;9626;52.552;13.436;2023-03-21T10:22:36;101023.38;;;8.46;100.00
18985;BME280;9626;52.552;13.436;2023-03-21T10:25:03;101035.69;;;8.41;100.00
18985;BME280;9626;52.552;13.436;2023-03-21T10:27:32;101035.78;;;8.24;100.00
18985;BME280;9626;52.552;13.436;2023-03-21T10:29:59;101029.59;;;8.29;100.00
18985;BME280;9626;52.552;13.436;2023-03-21T10:32:25;101025.13;;;8.39;100.00
18985;BME280;9626;52.552;13.436;2023-03-21T10:34:54;101013.63;;;8.56;100.00
18985;BME280;9626;52.552;13.436;2023-03-21T10:37:22;101018.00;;;8.61;100.00
18985;BME280;9626;52.552;13.436;2023-03-21T10:39:51;101008.22;;;8.77;100.00
18985;BME280;9626;52.552;13.436;2023-03-21T10:42:18;101001.03;;;8.98;100.00
18985;BME280;9626;52.552;13.436;2023-03-21T10:44:48;101002.00;;;8.86;100.00
18985;BME280;9626;52.552;13.436;2023-03-21T10:47:20;100989.72;;;8.84;100.00
18985;BME280;9626;52.552;13.436;2023-03-21T10:49:48;101001.94;;;8.92;100.00
18985;BME280;9626;52.552;13.436;2023-03-21T10:52:20;100996.53;;;9.08;100.00
18985;BME280;9626;52.552;13.436;2023-03-21T10:54:48;100996.50;;;9.14;100.00
18985;BME280;9626;52.552;13.436;2023-03-21T10:57:21;100994.69;;;9.16;100.00
18985;BME280;9626;52.552;13.436;2023-03-21T10:59:51;100999.06;;;9.20;100.00
18985;BME280;9626;52.552;13.436;2023-03-21T11:02:24;100989.44;;;9.18;100.00
18985;BME280;9626;52.552;13.436;2023-03-21T11:04:52;100995.59;;;9.17;100.00
18985;BME280;9626;52.552;13.436;2023-03-21T11:07:19;100999.03;;;9.26;100.00
18985;BME280;9626;52.552;13.436;2023-03-21T11:09:47;100991.16;;;9.17;100.00
18985;BME280;9626;52.552;13.436;2023-03-21T11:12:27;100984.16;;;9.13;100.00
18985;BME280;9626;52.552;13.436;2023-03-21T11:14:54;100987.72;;;9.10;100.00
18985;BME280;9626;52.552;13.436;2023-03-21T11:17:26;100991.25;;;9.09;100.00
18985;BME280;9626;52.552;13.436;2023-03-21T11:19:58;100980.66;;;9.14;100.00
18985;BME280;9626;52.552;13.436;2023-03-21T11:22:29;100985.94;;;9.14;100.00
18985;BME280;9626;52.552;13.436;2023-03-21T11:24:58;100976.25;;;9.11;100.00
18985;BME280;9626;52.552;13.436;2023-03-21T11:27:30;100967.41;;;9.16;100.00
18985;BME280;9626;52.552;13.436;2023-03-21T11:29:58;100976.22;;;9.14;100.00
18985;BME280;9626;52.552;13.436;2023-03-21T11:32:32;100977.09;;;9.18;100.00
18985;BME280;9626;52.552;13.436;2023-03-21T11:37:38;100971.66;;;9.32;100.00
18985;BME280;9626;52.552;13.436;2023-03-21T11:42:43;100963.66;;;9.40;100.00
18985;BME280;9626;52.552;13.436;2023-03-21T11:45:13;100960.06;;;9.45;100.00
18985;BME280;9626;52.552;13.436;2023-03-21T11:47:41;100961.75;;;9.56;100.00
18985;BME280;9626;52.552;13.436;2023-03-21T11:50:19;100951.16;;;9.56;100.00
18985;BME280;9626;52.552;13.436;2023-03-21T12:01:54;100945.66;;;9.73;100.00
18985;BME280;9626;52.552;13.436;2023-03-21T12:15:21;100936.50;;;10.00;100.00
18985;BME280;9626;52.552;13.436;2023-03-21T12:21:04;100922.00;;;10.27;100.00
18985;BME280;9626;52.552;13.436;2023-03-21T12:24:23;100919.44;;;10.23;100.00
18985;BME280;9626;52.552;13.436;2023-03-21T12:26:59;100909.81;;;10.15;100.00
18985;BME280;9626;52.552;13.436;2023-03-21T12:32:13;100902.81;;;10.14;100.00
18985;BME280;9626;52.552;13.436;2023-03-21T12:37:36;100904.53;;;10.17;100.00
18985;BME280;9626;52.552;13.436;2023-03-21T12:40:25;100906.41;;;10.07;100.00
18985;BME280;9626;52.552;13.436;2023-03-21T12:45:47;100896.63;;;10.14;100.00
18985;BME280;9626;52.552;13.436;2023-03-21T12:50:41;100894.78;;;10.19;100.00
18985;BME280;9626;52.552;13.436;2023-03-21T12:53:29;100896.50;;;10.22;100.00
18985;BME280;9626;52.552;13.436;2023-03-21T12:55:59;100889.56;;;10.14;100.00
18985;BME280;9626;52.552;13.436;2023-03-21T12:58:27;100887.88;;;10.10;100.00
18985;BME280;9626;52.552;13.436;2023-03-21T13:00:59;100878.13;;;10.12;100.00
18985;BME280;9626;52.552;13.436;2023-03-21T13:03:39;100876.19;;;10.24;100.00
18985;BME280;9626;52.552;13.436;2023-03-21T13:06:10;100875.22;;;10.31;100.00
18985;BME280;9626;52.552;13.436;2023-03-21T13:08:42;100874.25;;;10.37;100.00
18985;BME280;9626;52.552;13.436;2023-03-21T13:11:18;100867.28;;;10.29;100.00
18985;BME280;9626;52.552;13.436;2023-03-21T13:14:23;100862.16;;;10.19;100.00
18985;BME280;9626;52.552;13.436;2023-03-21T13:17:01;100858.44;;;10.30;100.00
18985;BME280;9626;52.552;13.436;2023-03-21T13:20:02;100861.06;;;10.34;100.00
18985;BME280;9626;52.552;13.436;2023-03-21T13:22:33;100849.59;;;10.36;100.00
18985;BME280;9626;52.552;13.436;2023-03-21T13:25:25;100844.25;;;10.38;100.00
18985;BME280;9626;52.552;13.436;2023-03-21T13:28:00;100846.97;;;10.30;100.00
18985;BME280;9626;52.552;13.436;2023-03-21T13:30:28;100848.81;;;10.25;100.00
18985;BME280;9626;52.552;13.436;2023-03-21T13:33:09;100845.19;;;10.30;100.00
18985;BME280;9626;52.552;13.436;2023-03-21T13:35:38;100846.03;;;10.34;100.00
18985;BME280;9626;52.552;13.436;2023-03-21T13:38:35;100842.38;;;10.43;100.00
18985;BME280;9626;52.552;13.436;2023-03-21T13:41:12;100838.94;;;10.39;100.00
18985;BME280;9626;52.552;13.436;2023-03-21T13:43:54;100838.88;;;10.42;100.00
18985;BME280;9626;52.552;13.436;2023-03-21T13:51:52;100830.94;;;10.42;100.00
18985;BME280;9626;52.552;13.436;2023-03-21T13:57:06;100828.19;;;10.47;100.00
18985;BME280;9626;52.552;13.436;2023-03-21T13:59:39;100825.56;;;10.45;100.00
18985;BME280;9626;52.552;13.436;2023-03-21T14:02:32;100828.97;;;10.54;100.00
18985;BME280;9626;52.552;13.436;2023-03-21T14:05:16;100826.16;;;10.63;100.00
18985;BME280;9626;52.552;13.436;2023-03-21T14:07:45;100815.53;;;10.64;100.00
18985;BME280;9626;52.552;13.436;2023-03-21T14:10:34;100825.31;;;10.62;100.00
18985;BME280;9626;52.552;13.436;2023-03-21T14:13:04;100818.97;;;10.71;100.00
18985;BME280;9626;52.552;13.436;2023-03-21T14:15:37;100819.00;;;10.70;100.00
18985;BME280;9626;52.552;13.436;2023-03-21T14:18:05;100819.72;;;10.78;100.00
18985;BME280;9626;52.552;13.436;2023-03-21T14:20:34;100814.50;;;10.75;100.00
18985;BME280;9626;52.552;13.436;2023-03-21T14:23:04;100816.94;;;10.86;100.00
18985;BME280;9626;52.552;13.436;2023-03-21T14:25:37;100815.47;;;10.69;100.00
18985;BME280;9626;52.552;13.436;2023-03-21T14:28:07;100818.28;;;10.60;100.00
18985;BME280;9626;52.552;13.436;2023-03-21T14:30:40;100815.69;;;10.57;100.00
18985;BME280;9626;52.552;13.436;2023-03-21T14:33:16;100813.38;;;10.37;100.00
18985;BME280;9626;52.552;13.436;2023-03-21T14:35:45;100808.13;;;10.35;100.00
18985;BME280;9626;52.552;13.436;2023-03-21T14:38:28;100808.94;;;10.40;100.00